sensor_id;sensor_type;location;lat;lon;timestamp;temperature;humidity
40636;DHT22;26642;55.766;37.828;2023-03-14T00:00:12;5.60;58.70
40636;DHT22;26642;55.766;37.828;2023-03-14T00:02:38;5.60;58.60
40636;DHT22;26642;55.766;37.828;2023-03-14T00:05:05;5.60;58.60
40636;DHT22;26642;55.766;37.828;2023-03-14T00:07:35;5.60;58.60
40636;DHT22;26642;55.766;37.828;2023-03-14T00:10:07;5.60;58.60
40636;DHT22;26642;55.766;37.828;2023-03-14T00:12:33;5.60;58.60
40636;DHT22;26642;55.766;37.828;2023-03-14T00:14:59;5.60;58.60
40636;DHT22;26642;55.766;37.828;2023-03-14T00:17:30;5.60;58.60
40636;DHT22;26642;55.766;37.828;2023-03-14T00:19:56;5.60;58.60
40636;DHT22;26642;55.766;37.828;2023-03-14T00:22:22;5.50;58.50
40636;DHT22;26642;55.766;37.828;2023-03-14T00:24:48;5.50;58.50
40636;DHT22;26642;55.766;37.828;2023-03-14T00:27:14;5.50;58.50
40636;DHT22;26642;55.766;37.828;2023-03-14T00:29:40;5.50;58.50
40636;DHT22;26642;55.766;37.828;2023-03-14T00:32:07;5.50;58.50
40636;DHT22;26642;55.766;37.828;2023-03-14T00:34:33;5.50;58.50
40636;DHT22;26642;55.766;37.828;2023-03-14T00:37:00;5.50;58.50
40636;DHT22;26642;55.766;37.828;2023-03-14T00:39:25;5.50;58.50
40636;DHT22;26642;55.766;37.828;2023-03-14T00:41:51;5.50;58.50
40636;DHT22;26642;55.766;37.828;2023-03-14T00:44:17;5.50;58.50
40636;DHT22;26642;55.766;37.828;2023-03-14T00:46:43;5.50;58.60
40636;DHT22;26642;55.766;37.828;2023-03-14T00:49:09;5.50;58.60
40636;DHT22;26642;55.766;37.828;2023-03-14T00:51:35;5.50;58.60
40636;DHT22;26642;55.766;37.828;2023-03-14T00:54:01;5.40;58.60
40636;DHT22;26642;55.766;37.828;2023-03-14T00:56:27;5.50;58.60
40636;DHT22;26642;55.766;37.828;2023-03-14T00:58:54;5.40;58.60
40636;DHT22;26642;55.766;37.828;2023-03-14T01:01:21;5.50;58.70
40636;DHT22;26642;55.766;37.828;2023-03-14T01:03:47;5.40;58.70
40636;DHT22;26642;55.766;37.828;2023-03-14T01:06:18;5.50;58.80
40636;DHT22;26642;55.766;37.828;2023-03-14T01:08:45;5.40;58.80
40636;DHT22;26642;55.766;37.828;2023-03-14T01:11:13;5.40;59.40
40636;DHT22;26642;55.766;37.828;2023-03-14T01:13:40;5.40;58.90
40636;DHT22;26642;55.766;37.828;2023-03-14T01:16:08;5.40;58.90
40636;DHT22;26642;55.766;37.828;2023-03-14T01:18:38;5.40;58.90
40636;DHT22;26642;55.766;37.828;2023-03-14T01:21:13;5.40;59.00
40636;DHT22;26642;55.766;37.828;2023-03-14T01:23:39;5.40;59.10
40636;DHT22;26642;55.766;37.828;2023-03-14T01:26:09;5.40;59.30
40636;DHT22;26642;55.766;37.828;2023-03-14T01:28:36;5.40;59.40
40636;DHT22;26642;55.766;37.828;2023-03-14T01:31:05;5.40;59.70
40636;DHT22;26642;55.766;37.828;2023-03-14T01:33:31;5.40;59.80
40636;DHT22;26642;55.766;37.828;2023-03-14T01:35:57;5.40;60.00
40636;DHT22;26642;55.766;37.828;2023-03-14T01:38:23;5.40;60.20
40636;DHT22;26642;55.766;37.828;2023-03-14T01:40:49;5.40;60.40
40636;DHT22;26642;55.766;37.828;2023-03-14T01:43:18;5.40;60.70
40636;DHT22;26642;55.766;37.828;2023-03-14T01:48:40;5.40;61.30
40636;DHT22;26642;55.766;37.828;2023-03-14T01:51:11;5.40;61.50
40636;DHT22;26642;55.766;37.828;2023-03-14T01:53:40;5.40;61.80
40636;DHT22;26642;55.766;37.828;2023-03-14T01:56:08;5.40;61.90
40636;DHT22;26642;55.766;37.828;2023-03-14T01:58:35;5.40;62.20
40636;DHT22;26642;55.766;37.828;2023-03-14T02:01:02;5.40;62.40
40636;DHT22;26642;55.766;37.828;2023-03-14T02:03:31;5.40;62.60
40636;DHT22;26642;55.766;37.828;2023-03-14T02:06:04;5.40;62.60
40636;DHT22;26642;55.766;37.828;2023-03-14T02:08:33;5.40;62.80
40636;DHT22;26642;55.766;37.828;2023-03-14T02:11:04;5.40;62.90
40636;DHT22;26642;55.766;37.828;2023-03-14T02:13:48;5.40;63.10
40636;DHT22;26642;55.766;37.828;2023-03-14T02:16:41;5.50;63.40
40636;DHT22;26642;55.766;37.828;2023-03-14T02:19:46;5.40;63.50
40636;DHT22;26642;55.766;37.828;2023-03-14T02:22:38;5.40;63.70
40636;DHT22;26642;55.766;37.828;2023-03-14T02:27:47;5.40;63.90
40636;DHT22;26642;55.766;37.828;2023-03-14T02:30:20;5.50;64.10
40636;DHT22;26642;55.766;37.828;2023-03-14T02:33:00;5.50;64.10
40636;DHT22;26642;55.766;37.828;2023-03-14T02:35:40;5.50;64.20
40636;DHT22;26642;55.766;37.828;2023-03-14T02:40:55;5.50;64.40
40636;DHT22;26642;55.766;37.828;2023-03-14T02:43:22;5.50;64.60
40636;DHT22;26642;55.766;37.828;2023-03-14T02:45:54;5.50;64.90
40636;DHT22;26642;55.766;37.828;2023-03-14T02:48:25;5.50;65.00
40636;DHT22;26642;55.766;37.828;2023-03-14T02:50:56;5.50;65.10
40636;DHT22;26642;55.766;37.828;2023-03-14T02:53:31;5.50;65.50
40636;DHT22;26642;55.766;37.828;2023-03-14T02:56:01;5.50;65.70
40636;DHT22;26642;55.766;37.828;2023-03-14T02:58:29;5.50;66.00
40636;DHT22;26642;55.766;37.828;2023-03-14T03:01:04;5.50;66.10
40636;DHT22;26642;55.766;37.828;2023-03-14T03:03:30;5.50;66.40
40636;DHT22;26642;55.766;37.828;2023-03-14T03:05:56;5.50;66.60
40636;DHT22;26642;55.766;37.828;2023-03-14T03:08:24;5.60;66.80
40636;DHT22;26642;55.766;37.828;2023-03-14T03:10:52;5.60;66.90
40636;DHT22;26642;55.766;37.828;2023-03-14T03:13:19;5.60;66.90
40636;DHT22;26642;55.766;37.828;2023-03-14T03:15:49;5.60;67.00
40636;DHT22;26642;55.766;37.828;2023-03-14T03:18:15;5.60;67.10
40636;DHT22;26642;55.766;37.828;2023-03-14T03:20:42;5.60;67.20
40636;DHT22;26642;55.766;37.828;2023-03-14T03:23:08;5.60;67.20
40636;DHT22;26642;55.766;37.828;2023-03-14T03:25:37;5.60;67.30
40636;DHT22;26642;55.766;37.828;2023-03-14T03:28:04;5.60;67.40
40636;DHT22;26642;55.766;37.828;2023-03-14T03:30:39;5.60;67.50
40636;DHT22;26642;55.766;37.828;2023-03-14T03:33:06;5.70;67.60
40636;DHT22;26642;55.766;37.828;2023-03-14T03:35:32;5.60;67.60
40636;DHT22;26642;55.766;37.828;2023-03-14T03:37:59;5.60;67.60
40636;DHT22;26642;55.766;37.828;2023-03-14T03:40:25;5.70;67.70
40636;DHT22;26642;55.766;37.828;2023-03-14T03:42:51;5.70;67.70
40636;DHT22;26642;55.766;37.828;2023-03-14T03:45:17;5.70;67.70
40636;DHT22;26642;55.766;37.828;2023-03-14T03:47:50;5.70;67.80
40636;DHT22;26642;55.766;37.828;2023-03-14T03:50:16;5.70;67.90
40636;DHT22;26642;55.766;37.828;2023-03-14T03:52:42;5.70;68.00
40636;DHT22;26642;55.766;37.828;2023-03-14T03:55:08;5.80;68.10
40636;DHT22;26642;55.766;37.828;2023-03-14T03:57:34;5.70;68.10
40636;DHT22;26642;55.766;37.828;2023-03-14T04:00:00;5.80;68.20
40636;DHT22;26642;55.766;37.828;2023-03-14T04:02:27;5.80;68.20
40636;DHT22;26642;55.766;37.828;2023-03-14T04:04:53;5.80;68.20
40636;DHT22;26642;55.766;37.828;2023-03-14T04:07:19;5.80;68.30
40636;DHT22;26642;55.766;37.828;2023-03-14T04:09:46;5.80;68.30
40636;DHT22;26642;55.766;37.828;2023-03-14T04:12:44;5.80;68.40
40636;DHT22;26642;55.766;37.828;2023-03-14T04:15:16;5.80;68.50
40636;DHT22;26642;55.766;37.828;2023-03-14T04:17:46;5.80;68.60
40636;DHT22;26642;55.766;37.828;2023-03-14T04:20:14;5.90;68.70
40636;DHT22;26642;55.766;37.828;2023-03-14T04:22:40;5.80;69.20
40636;DHT22;26642;55.766;37.828;2023-03-14T04:25:07;5.90;72.90
40636;DHT22;26642;55.766;37.828;2023-03-14T04:27:37;6.00;72.20
40636;DHT22;26642;55.766;37.828;2023-03-14T04:30:10;6.00;72.00
40636;DHT22;26642;55.766;37.828;2023-03-14T04:33:11;6.00;71.60
40636;DHT22;26642;55.766;37.828;2023-03-14T04:35:46;6.10;71.30
40636;DHT22;26642;55.766;37.828;2023-03-14T04:38:14;6.10;71.20
40636;DHT22;26642;55.766;37.828;2023-03-14T04:40:44;6.10;71.40
40636;DHT22;26642;55.766;37.828;2023-03-14T04:43:11;6.20;71.80
40636;DHT22;26642;55.766;37.828;2023-03-14T04:45:44;6.20;72.00
40636;DHT22;26642;55.766;37.828;2023-03-14T04:48:10;6.20;72.70
40636;DHT22;26642;55.766;37.828;2023-03-14T04:50:38;6.20;78.30
40636;DHT22;26642;55.766;37.828;2023-03-14T04:53:04;6.30;82.90
40636;DHT22;26642;55.766;37.828;2023-03-14T04:55:31;6.40;84.00
40636;DHT22;26642;55.766;37.828;2023-03-14T04:58:00;6.50;84.80
40636;DHT22;26642;55.766;37.828;2023-03-14T05:00:26;6.60;86.00
40636;DHT22;26642;55.766;37.828;2023-03-14T05:03:18;6.70;86.10
40636;DHT22;26642;55.766;37.828;2023-03-14T05:06:13;6.90;84.80
40636;DHT22;26642;55.766;37.828;2023-03-14T05:09:03;7.00;85.90
40636;DHT22;26642;55.766;37.828;2023-03-14T05:11:49;7.10;84.70
40636;DHT22;26642;55.766;37.828;2023-03-14T05:14:34;7.30;84.60
40636;DHT22;26642;55.766;37.828;2023-03-14T05:17:20;7.40;84.50
40636;DHT22;26642;55.766;37.828;2023-03-14T05:19:46;7.50;82.50
40636;DHT22;26642;55.766;37.828;2023-03-14T05:22:28;7.60;82.80
40636;DHT22;26642;55.766;37.828;2023-03-14T05:25:13;7.80;82.70
40636;DHT22;26642;55.766;37.828;2023-03-14T05:27:57;7.90;82.10
40636;DHT22;26642;55.766;37.828;2023-03-14T05:30:45;8.00;81.60
40636;DHT22;26642;55.766;37.828;2023-03-14T05:33:43;8.00;80.30
40636;DHT22;26642;55.766;37.828;2023-03-14T05:36:35;8.20;80.00
40636;DHT22;26642;55.766;37.828;2023-03-14T05:39:30;8.30;79.10
40636;DHT22;26642;55.766;37.828;2023-03-14T05:42:10;8.40;79.00
40636;DHT22;26642;55.766;37.828;2023-03-14T05:44:54;8.50;79.00
40636;DHT22;26642;55.766;37.828;2023-03-14T05:47:49;8.60;79.90
40636;DHT22;26642;55.766;37.828;2023-03-14T05:50:22;8.70;78.30
40636;DHT22;26642;55.766;37.828;2023-03-14T05:53:00;8.80;76.00
40636;DHT22;26642;55.766;37.828;2023-03-14T05:55:46;8.80;75.20
40636;DHT22;26642;55.766;37.828;2023-03-14T05:58:33;8.80;73.80
40636;DHT22;26642;55.766;37.828;2023-03-14T06:01:19;8.90;73.20
40636;DHT22;26642;55.766;37.828;2023-03-14T06:04:02;8.90;72.60
40636;DHT22;26642;55.766;37.828;2023-03-14T06:06:29;8.90;72.30
40636;DHT22;26642;55.766;37.828;2023-03-14T06:08:55;8.80;72.50
40636;DHT22;26642;55.766;37.828;2023-03-14T06:11:21;8.80;72.40
40636;DHT22;26642;55.766;37.828;2023-03-14T06:13:46;8.80;72.30
40636;DHT22;26642;55.766;37.828;2023-03-14T06:16:13;8.80;72.00
40636;DHT22;26642;55.766;37.828;2023-03-14T06:18:40;8.80;72.00
40636;DHT22;26642;55.766;37.828;2023-03-14T06:21:08;8.80;72.00
40636;DHT22;26642;55.766;37.828;2023-03-14T06:23:35;8.80;72.50
40636;DHT22;26642;55.766;37.828;2023-03-14T06:26:04;8.80;72.00
40636;DHT22;26642;55.766;37.828;2023-03-14T06:28:30;8.80;72.00
40636;DHT22;26642;55.766;37.828;2023-03-14T06:30:59;8.80;71.80
40636;DHT22;26642;55.766;37.828;2023-03-14T06:33:28;8.80;71.80
40636;DHT22;26642;55.766;37.828;2023-03-14T06:35:54;8.80;71.60
40636;DHT22;26642;55.766;37.828;2023-03-14T06:38:20;8.80;71.40
40636;DHT22;26642;55.766;37.828;2023-03-14T06:40:47;8.80;71.30
40636;DHT22;26642;55.766;37.828;2023-03-14T06:43:18;8.70;71.00
40636;DHT22;26642;55.766;37.828;2023-03-14T06:45:45;8.80;71.10
40636;DHT22;26642;55.766;37.828;2023-03-14T06:48:12;8.80;71.10
40636;DHT22;26642;55.766;37.828;2023-03-14T06:50:44;8.80;71.30
40636;DHT22;26642;55.766;37.828;2023-03-14T06:53:10;8.80;71.10
40636;DHT22;26642;55.766;37.828;2023-03-14T06:55:40;8.70;71.00
40636;DHT22;26642;55.766;37.828;2023-03-14T06:58:07;8.70;71.10
40636;DHT22;26642;55.766;37.828;2023-03-14T07:00:38;8.80;71.30
40636;DHT22;26642;55.766;37.828;2023-03-14T07:03:04;8.70;71.30
40636;DHT22;26642;55.766;37.828;2023-03-14T07:05:35;8.70;71.40
40636;DHT22;26642;55.766;37.828;2023-03-14T07:08:01;8.70;71.60
40636;DHT22;26642;55.766;37.828;2023-03-14T07:10:28;8.70;72.40
40636;DHT22;26642;55.766;37.828;2023-03-14T07:12:54;8.70;71.50
40636;DHT22;26642;55.766;37.828;2023-03-14T07:15:22;8.70;70.30
40636;DHT22;26642;55.766;37.828;2023-03-14T07:17:52;8.70;69.20
40636;DHT22;26642;55.766;37.828;2023-03-14T07:20:21;8.60;68.60
40636;DHT22;26642;55.766;37.828;2023-03-14T07:22:48;8.60;68.30
40636;DHT22;26642;55.766;37.828;2023-03-14T07:25:16;8.50;67.60
40636;DHT22;26642;55.766;37.828;2023-03-14T07:27:46;8.50;68.90
40636;DHT22;26642;55.766;37.828;2023-03-14T07:30:15;8.50;68.90
40636;DHT22;26642;55.766;37.828;2023-03-14T07:32:41;8.50;68.50
40636;DHT22;26642;55.766;37.828;2023-03-14T07:35:08;8.50;68.70
40636;DHT22;26642;55.766;37.828;2023-03-14T07:37:37;8.50;67.90
40636;DHT22;26642;55.766;37.828;2023-03-14T07:40:04;8.40;67.70
40636;DHT22;26642;55.766;37.828;2023-03-14T07:42:35;8.40;67.30
40636;DHT22;26642;55.766;37.828;2023-03-14T07:45:21;8.40;67.30
40636;DHT22;26642;55.766;37.828;2023-03-14T07:47:47;8.40;67.30
40636;DHT22;26642;55.766;37.828;2023-03-14T07:50:13;8.40;67.20
40636;DHT22;26642;55.766;37.828;2023-03-14T07:52:39;8.40;67.10
40636;DHT22;26642;55.766;37.828;2023-03-14T07:55:06;8.30;66.90
40636;DHT22;26642;55.766;37.828;2023-03-14T07:57:32;8.30;66.90
40636;DHT22;26642;55.766;37.828;2023-03-14T07:59:58;8.30;67.30
40636;DHT22;26642;55.766;37.828;2023-03-14T08:02:24;8.30;67.20
40636;DHT22;26642;55.766;37.828;2023-03-14T08:04:50;8.30;67.30
40636;DHT22;26642;55.766;37.828;2023-03-14T08:07:16;8.30;67.30
40636;DHT22;26642;55.766;37.828;2023-03-14T08:09:42;8.30;67.30
40636;DHT22;26642;55.766;37.828;2023-03-14T08:12:08;8.30;67.10
40636;DHT22;26642;55.766;37.828;2023-03-14T08:14:34;8.20;66.70
40636;DHT22;26642;55.766;37.828;2023-03-14T08:17:00;8.20;66.60
40636;DHT22;26642;55.766;37.828;2023-03-14T08:19:26;8.20;66.60
40636;DHT22;26642;55.766;37.828;2023-03-14T08:21:52;8.20;66.50
40636;DHT22;26642;55.766;37.828;2023-03-14T08:24:18;8.20;66.40
40636;DHT22;26642;55.766;37.828;2023-03-14T08:26:44;8.20;67.00
40636;DHT22;26642;55.766;37.828;2023-03-14T08:29:10;8.20;66.40
40636;DHT22;26642;55.766;37.828;2023-03-14T08:31:38;8.20;68.40
40636;DHT22;26642;55.766;37.828;2023-03-14T08:34:04;8.20;69.30
40636;DHT22;26642;55.766;37.828;2023-03-14T08:36:32;8.20;69.40
40636;DHT22;26642;55.766;37.828;2023-03-14T08:38:58;8.20;69.80
40636;DHT22;26642;55.766;37.828;2023-03-14T08:41:25;8.20;69.40
40636;DHT22;26642;55.766;37.828;2023-03-14T08:43:50;8.20;69.00
40636;DHT22;26642;55.766;37.828;2023-03-14T08:46:16;8.20;69.00
40636;DHT22;26642;55.766;37.828;2023-03-14T08:48:42;8.20;68.60
40636;DHT22;26642;55.766;37.828;2023-03-14T08:51:10;8.20;68.40
40636;DHT22;26642;55.766;37.828;2023-03-14T08:53:38;8.20;68.10
40636;DHT22;26642;55.766;37.828;2023-03-14T08:56:05;8.20;68.60
40636;DHT22;26642;55.766;37.828;2023-03-14T08:58:32;8.20;68.60
40636;DHT22;26642;55.766;37.828;2023-03-14T09:00:59;8.20;69.00
40636;DHT22;26642;55.766;37.828;2023-03-14T09:03:25;8.30;68.80
40636;DHT22;26642;55.766;37.828;2023-03-14T09:05:51;8.30;69.80
40636;DHT22;26642;55.766;37.828;2023-03-14T09:08:18;8.30;70.80
40636;DHT22;26642;55.766;37.828;2023-03-14T09:10:44;8.30;71.20
40636;DHT22;26642;55.766;37.828;2023-03-14T09:13:10;8.40;71.80
40636;DHT22;26642;55.766;37.828;2023-03-14T09:15:38;8.40;71.40
40636;DHT22;26642;55.766;37.828;2023-03-14T09:18:10;8.40;71.30
40636;DHT22;26642;55.766;37.828;2023-03-14T09:20:36;8.40;70.70
40636;DHT22;26642;55.766;37.828;2023-03-14T09:23:02;8.50;70.50
40636;DHT22;26642;55.766;37.828;2023-03-14T09:25:28;8.50;70.30
40636;DHT22;26642;55.766;37.828;2023-03-14T09:27:54;8.60;70.00
40636;DHT22;26642;55.766;37.828;2023-03-14T09:30:20;8.60;69.70
40636;DHT22;26642;55.766;37.828;2023-03-14T09:32:46;8.60;69.00
40636;DHT22;26642;55.766;37.828;2023-03-14T09:35:12;8.60;68.80
40636;DHT22;26642;55.766;37.828;2023-03-14T09:37:38;8.60;68.80
40636;DHT22;26642;55.766;37.828;2023-03-14T09:40:05;8.70;68.00
40636;DHT22;26642;55.766;37.828;2023-03-14T09:42:37;8.70;67.90
40636;DHT22;26642;55.766;37.828;2023-03-14T09:45:14;8.70;67.60
40636;DHT22;26642;55.766;37.828;2023-03-14T09:47:41;8.80;67.40
40636;DHT22;26642;55.766;37.828;2023-03-14T09:50:15;8.80;67.10
40636;DHT22;26642;55.766;37.828;2023-03-14T09:52:48;8.80;67.30
40636;DHT22;26642;55.766;37.828;2023-03-14T09:55:18;8.80;67.20
40636;DHT22;26642;55.766;37.828;2023-03-14T09:57:45;8.90;66.90
40636;DHT22;26642;55.766;37.828;2023-03-14T10:00:20;8.90;66.80
40636;DHT22;26642;55.766;37.828;2023-03-14T10:02:55;8.90;66.60
40636;DHT22;26642;55.766;37.828;2023-03-14T10:05:23;9.00;66.60
40636;DHT22;26642;55.766;37.828;2023-03-14T10:07:50;9.00;66.40
40636;DHT22;26642;55.766;37.828;2023-03-14T10:10:19;9.00;66.60
40636;DHT22;26642;55.766;37.828;2023-03-14T10:12:49;9.00;66.20
40636;DHT22;26642;55.766;37.828;2023-03-14T10:15:33;9.10;66.40
40636;DHT22;26642;55.766;37.828;2023-03-14T10:18:01;9.10;66.40
40636;DHT22;26642;55.766;37.828;2023-03-14T10:20:34;9.10;66.30
40636;DHT22;26642;55.766;37.828;2023-03-14T10:23:06;9.10;65.90
40636;DHT22;26642;55.766;37.828;2023-03-14T10:25:37;9.10;65.70
40636;DHT22;26642;55.766;37.828;2023-03-14T10:28:04;9.20;65.90
40636;DHT22;26642;55.766;37.828;2023-03-14T10:30:37;9.20;66.10
40636;DHT22;26642;55.766;37.828;2023-03-14T10:33:12;9.20;66.30
40636;DHT22;26642;55.766;37.828;2023-03-14T10:35:46;9.20;66.10
40636;DHT22;26642;55.766;37.828;2023-03-14T10:38:17;9.30;66.00
40636;DHT22;26642;55.766;37.828;2023-03-14T10:40:51;9.30;66.10
40636;DHT22;26642;55.766;37.828;2023-03-14T10:43:22;9.30;65.80
40636;DHT22;26642;55.766;37.828;2023-03-14T10:45:55;9.30;66.00
40636;DHT22;26642;55.766;37.828;2023-03-14T10:48:35;9.30;65.70
40636;DHT22;26642;55.766;37.828;2023-03-14T10:53:59;9.40;65.40
40636;DHT22;26642;55.766;37.828;2023-03-14T10:56:26;9.40;65.30
40636;DHT22;26642;55.766;37.828;2023-03-14T10:58:56;9.40;65.30
40636;DHT22;26642;55.766;37.828;2023-03-14T11:01:26;9.40;65.10
40636;DHT22;26642;55.766;37.828;2023-03-14T11:09:33;9.50;64.80
40636;DHT22;26642;55.766;37.828;2023-03-14T11:12:29;9.50;64.80
40636;DHT22;26642;55.766;37.828;2023-03-14T11:15:02;9.60;64.60
40636;DHT22;26642;55.766;37.828;2023-03-14T11:17:58;9.60;64.50
40636;DHT22;26642;55.766;37.828;2023-03-14T11:23:23;9.70;65.50
40636;DHT22;26642;55.766;37.828;2023-03-14T11:26:07;9.70;65.00
40636;DHT22;26642;55.766;37.828;2023-03-14T11:28:47;9.80;65.10
40636;DHT22;26642;55.766;37.828;2023-03-14T11:31:28;9.80;64.80
40636;DHT22;26642;55.766;37.828;2023-03-14T11:36:41;10.00;64.50
40636;DHT22;26642;55.766;37.828;2023-03-14T11:39:15;10.10;64.00
40636;DHT22;26642;55.766;37.828;2023-03-14T11:41:44;10.10;63.60
40636;DHT22;26642;55.766;37.828;2023-03-14T11:44:19;10.20;63.60
40636;DHT22;26642;55.766;37.828;2023-03-14T11:49:40;10.30;62.90
40636;DHT22;26642;55.766;37.828;2023-03-14T11:52:19;10.40;62.20
40636;DHT22;26642;55.766;37.828;2023-03-14T11:54:53;10.50;62.10
40636;DHT22;26642;55.766;37.828;2023-03-14T11:57:22;10.50;62.00
40636;DHT22;26642;55.766;37.828;2023-03-14T12:00:20;10.60;61.60
40636;DHT22;26642;55.766;37.828;2023-03-14T12:03:21;10.60;61.20
40636;DHT22;26642;55.766;37.828;2023-03-14T12:09:00;10.80;61.40
40636;DHT22;26642;55.766;37.828;2023-03-14T12:11:34;10.80;60.70
40636;DHT22;26642;55.766;37.828;2023-03-14T12:14:01;10.80;60.60
40636;DHT22;26642;55.766;37.828;2023-03-14T12:16:47;10.90;60.20
40636;DHT22;26642;55.766;37.828;2023-03-14T12:21:55;11.10;58.70
40636;DHT22;26642;55.766;37.828;2023-03-14T12:24:25;11.10;59.20
40636;DHT22;26642;55.766;37.828;2023-03-14T12:26:55;11.10;59.20
40636;DHT22;26642;55.766;37.828;2023-03-14T12:29:22;11.20;59.70
40636;DHT22;26642;55.766;37.828;2023-03-14T12:32:08;11.20;59.50
40636;DHT22;26642;55.766;37.828;2023-03-14T12:34:41;11.20;60.40
40636;DHT22;26642;55.766;37.828;2023-03-14T12:37:18;11.20;60.60
40636;DHT22;26642;55.766;37.828;2023-03-14T12:42:58;11.30;61.00
40636;DHT22;26642;55.766;37.828;2023-03-14T12:48:43;11.30;61.50
40636;DHT22;26642;55.766;37.828;2023-03-14T12:51:00;11.30;61.60
40636;DHT22;26642;55.766;37.828;2023-03-14T12:56:22;11.20;61.70
40636;DHT22;26642;55.766;37.828;2023-03-14T13:04:45;11.30;62.20
40636;DHT22;26642;55.766;37.828;2023-03-14T13:12:54;11.30;62.70
40636;DHT22;26642;55.766;37.828;2023-03-14T13:17:56;11.30;62.90
40636;DHT22;26642;55.766;37.828;2023-03-14T13:21:03;11.30;66.30
40636;DHT22;26642;55.766;37.828;2023-03-14T13:23:34;11.40;66.70
40636;DHT22;26642;55.766;37.828;2023-03-14T13:26:01;11.40;67.20
40636;DHT22;26642;55.766;37.828;2023-03-14T13:28:29;11.50;65.80
40636;DHT22;26642;55.766;37.828;2023-03-14T13:30:59;11.50;65.30
40636;DHT22;26642;55.766;37.828;2023-03-14T13:33:26;11.50;65.10
40636;DHT22;26642;55.766;37.828;2023-03-14T13:36:00;11.60;65.00
40636;DHT22;26642;55.766;37.828;2023-03-14T13:38:30;11.50;64.70
40636;DHT22;26642;55.766;37.828;2023-03-14T13:40:59;11.60;64.40
40636;DHT22;26642;55.766;37.828;2023-03-14T13:43:34;11.50;64.30
40636;DHT22;26642;55.766;37.828;2023-03-14T13:48:33;11.60;64.50
40636;DHT22;26642;55.766;37.828;2023-03-14T13:51:07;11.50;64.50
40636;DHT22;26642;55.766;37.828;2023-03-14T13:56:10;11.50;64.50
40636;DHT22;26642;55.766;37.828;2023-03-14T13:58:37;11.60;65.00
40636;DHT22;26642;55.766;37.828;2023-03-14T14:01:16;11.60;65.40
40636;DHT22;26642;55.766;37.828;2023-03-14T14:03:45;11.60;69.40
40636;DHT22;26642;55.766;37.828;2023-03-14T14:09:10;11.60;67.80
40636;DHT22;26642;55.766;37.828;2023-03-14T14:14:38;11.60;67.50
40636;DHT22;26642;55.766;37.828;2023-03-14T14:17:09;11.60;67.30
40636;DHT22;26642;55.766;37.828;2023-03-14T14:19:37;11.60;67.40
40636;DHT22;26642;55.766;37.828;2023-03-14T14:22:04;11.60;67.30
40636;DHT22;26642;55.766;37.828;2023-03-14T14:24:31;11.60;67.30
40636;DHT22;26642;55.766;37.828;2023-03-14T14:27:19;11.60;67.50
40636;DHT22;26642;55.766;37.828;2023-03-14T14:29:59;11.60;67.30
40636;DHT22;26642;55.766;37.828;2023-03-14T14:32:27;11.60;67.30
40636;DHT22;26642;55.766;37.828;2023-03-14T14:35:01;11.60;67.20
40636;DHT22;26642;55.766;37.828;2023-03-14T14:37:31;11.60;67.30
40636;DHT22;26642;55.766;37.828;2023-03-14T14:43:02;11.60;67.40
40636;DHT22;26642;55.766;37.828;2023-03-14T14:45:29;11.60;67.40
40636;DHT22;26642;55.766;37.828;2023-03-14T14:50:28;11.60;67.30
40636;DHT22;26642;55.766;37.828;2023-03-14T14:53:00;11.60;67.30
40636;DHT22;26642;55.766;37.828;2023-03-14T14:55:40;11.60;67.10
40636;DHT22;26642;55.766;37.828;2023-03-14T15:00:54;11.60;66.90
40636;DHT22;26642;55.766;37.828;2023-03-14T15:03:21;11.60;66.90
40636;DHT22;26642;55.766;37.828;2023-03-14T15:05:47;11.60;66.90
40636;DHT22;26642;55.766;37.828;2023-03-14T15:08:13;11.70;67.70
40636;DHT22;26642;55.766;37.828;2023-03-14T15:10:39;11.70;70.70
40636;DHT22;26642;55.766;37.828;2023-03-14T15:13:05;11.60;66.80
40636;DHT22;26642;55.766;37.828;2023-03-14T15:15:31;11.60;67.10
40636;DHT22;26642;55.766;37.828;2023-03-14T15:17:57;11.60;67.10
40636;DHT22;26642;55.766;37.828;2023-03-14T15:20:23;11.60;67.00
40636;DHT22;26642;55.766;37.828;2023-03-14T15:22:50;11.60;67.00
40636;DHT22;26642;55.766;37.828;2023-03-14T15:25:16;11.60;67.00
40636;DHT22;26642;55.766;37.828;2023-03-14T15:27:42;11.60;66.90
40636;DHT22;26642;55.766;37.828;2023-03-14T15:30:13;11.60;66.90
40636;DHT22;26642;55.766;37.828;2023-03-14T15:32:39;11.60;66.80
40636;DHT22;26642;55.766;37.828;2023-03-14T15:35:06;11.60;66.80
40636;DHT22;26642;55.766;37.828;2023-03-14T15:37:33;11.60;66.70
40636;DHT22;26642;55.766;37.828;2023-03-14T15:39:58;11.60;66.60
40636;DHT22;26642;55.766;37.828;2023-03-14T15:42:24;11.60;66.60
40636;DHT22;26642;55.766;37.828;2023-03-14T15:44:50;11.60;66.30
40636;DHT22;26642;55.766;37.828;2023-03-14T15:47:17;11.60;66.20
40636;DHT22;26642;55.766;37.828;2023-03-14T15:49:43;11.60;66.00
40636;DHT22;26642;55.766;37.828;2023-03-14T15:52:10;11.60;66.60
40636;DHT22;26642;55.766;37.828;2023-03-14T15:54:36;11.70;66.00
40636;DHT22;26642;55.766;37.828;2023-03-14T15:57:01;11.70;66.20
40636;DHT22;26642;55.766;37.828;2023-03-14T15:59:27;11.60;65.70
40636;DHT22;26642;55.766;37.828;2023-03-14T16:01:53;11.60;65.50
40636;DHT22;26642;55.766;37.828;2023-03-14T16:04:19;11.60;65.40
40636;DHT22;26642;55.766;37.828;2023-03-14T16:06:45;11.60;65.20
40636;DHT22;26642;55.766;37.828;2023-03-14T16:09:12;11.60;65.20
40636;DHT22;26642;55.766;37.828;2023-03-14T16:11:38;11.60;65.80
40636;DHT22;26642;55.766;37.828;2023-03-14T16:14:04;11.60;64.90
40636;DHT22;26642;55.766;37.828;2023-03-14T16:16:30;11.60;64.80
40636;DHT22;26642;55.766;37.828;2023-03-14T16:18:56;11.60;64.50
40636;DHT22;26642;55.766;37.828;2023-03-14T16:21:22;11.60;64.40
40636;DHT22;26642;55.766;37.828;2023-03-14T16:23:48;11.60;64.30
40636;DHT22;26642;55.766;37.828;2023-03-14T16:26:16;11.60;64.10
40636;DHT22;26642;55.766;37.828;2023-03-14T16:28:44;11.60;64.10
40636;DHT22;26642;55.766;37.828;2023-03-14T16:31:16;11.70;64.10
40636;DHT22;26642;55.766;37.828;2023-03-14T16:33:43;11.60;63.90
40636;DHT22;26642;55.766;37.828;2023-03-14T16:36:11;11.60;63.80
40636;DHT22;26642;55.766;37.828;2023-03-14T16:38:39;11.60;63.60
40636;DHT22;26642;55.766;37.828;2023-03-14T16:41:18;11.60;63.50
40636;DHT22;26642;55.766;37.828;2023-03-14T16:43:45;11.60;63.70
40636;DHT22;26642;55.766;37.828;2023-03-14T16:46:17;11.60;63.50
40636;DHT22;26642;55.766;37.828;2023-03-14T16:48:44;11.60;64.00
40636;DHT22;26642;55.766;37.828;2023-03-14T16:51:10;11.60;63.90
40636;DHT22;26642;55.766;37.828;2023-03-14T16:53:36;11.60;63.90
40636;DHT22;26642;55.766;37.828;2023-03-14T16:56:02;11.60;63.70
40636;DHT22;26642;55.766;37.828;2023-03-14T16:58:28;11.60;63.70
40636;DHT22;26642;55.766;37.828;2023-03-14T17:00:56;11.60;63.60